Aérodrome :
LOGIN :

S'inscrire | Disclaimer

   EN    FR    IT 

 










Légende :    VFR   VFR Marginal   IFR   IFR Intensif   IFR Très Intensif
Visi : 
Plafond : 
>= 8 km
>= 3000ft
5 à 8 km
1000 à 3000 ft
1500m à 5 km
500 à 1000 ft
800 à 1500m
200 à 500 ft
< 800m
< 200 ft
Symboles :   Orages  Brouillard  Fortes neiges  Fortes précipitations  Vent > 20 kt
SIGMETs :   Divers  Orages  Givrage  Turbulence  Onde Orograph.  Cendres Volcan.







- Altitude de l'aérodrome : 194 ft


EBCV - Chièvres

DERNIER METAR :
  • 240755Z AUTO 22010KT 9999 OVC014/// 10/07 Q1019 GRN

METARs EXPIRÉS :
  • 240725Z AUTO 22009KT 9999 OVC014/// 10/07 Q1018 GRN
  • 240655Z AUTO 21007KT 9999 BKN015/// OVC040/// 09/07 Q1018 WHT
  • 240635Z AUTO 21007KT 9999 SCT015/// OVC037/// 09/07 Q1018 WHT
  • 240625Z AUTO 22008KT 9999 FEW015/// OVC037/// 09/06 Q1018 BLU
  • 240614Z AUTO 22009KT 9999 FEW015/// OVC038/// 09/06 Q1018 BLU
  • 240555Z AUTO 22009KT 9999 SCT014/// OVC039/// 09/06 Q1018 GRN
  • 240525Z AUTO 23010KT 9999 SCT014/// OVC042/// 09/06 Q1018 GRN

TAF TAF EBCV
Valide du 24 à 07h jusqu'au 24 à 16h UTC


240541Z 2407/2416 22010KT 9999 BKN013 OVC020
TEMPO 2408/2416 7000 -RA -DZ BKN008 OVC015
BECMG 2415/2416 27008KT BY EBWM
Pas de NOTAMs connus pour ce terrain.



MET'MAP, la Météo Aéronautique d'un coup d'oeil ! - Copyright ORBIFLY Décembre 2007 - Disclaimer

ORBIFLY MET'MAP TEAM :

Programmation & Développement : Alexandra Zaïnal
Conception & Développement : Baudouin d'Aumeries
Co-Programmation & Développement : Marc-Olivier Méhu
Soutien technique & logistique : Manuel Goepfert

Contact : metmap@orbifly.com




SOURCES & CREDITS :

   NOAA